sensor_id;sensor_type;location;lat;lon;timestamp;temperature;humidity
46890;DHT22;32625;51.080;16.970;2022-07-29T00:01:08;17.40;86.90
46890;DHT22;32625;51.080;16.970;2022-07-29T00:03:45;17.40;85.30
46890;DHT22;32625;51.080;16.970;2022-07-29T00:06:13;17.30;86.20
46890;DHT22;32625;51.080;16.970;2022-07-29T00:08:41;17.30;87.80
46890;DHT22;32625;51.080;16.970;2022-07-29T00:11:08;17.30;86.50
46890;DHT22;32625;51.080;16.970;2022-07-29T00:13:35;17.30;87.60
46890;DHT22;32625;51.080;16.970;2022-07-29T00:16:03;17.20;86.90
46890;DHT22;32625;51.080;16.970;2022-07-29T00:18:31;17.20;88.70
46890;DHT22;32625;51.080;16.970;2022-07-29T00:20:59;17.20;87.60
46890;DHT22;32625;51.080;16.970;2022-07-29T00:23:26;17.20;87.70
46890;DHT22;32625;51.080;16.970;2022-07-29T00:25:55;17.20;87.50
46890;DHT22;32625;51.080;16.970;2022-07-29T00:28:22;17.20;86.20
46890;DHT22;32625;51.080;16.970;2022-07-29T00:30:50;17.20;87.90
46890;DHT22;32625;51.080;16.970;2022-07-29T00:33:17;17.20;87.00
46890;DHT22;32625;51.080;16.970;2022-07-29T00:35:44;17.20;86.90
46890;DHT22;32625;51.080;16.970;2022-07-29T00:38:18;17.20;87.00
46890;DHT22;32625;51.080;16.970;2022-07-29T00:40:47;17.10;87.30
46890;DHT22;32625;51.080;16.970;2022-07-29T00:43:14;17.10;86.80
46890;DHT22;32625;51.080;16.970;2022-07-29T00:45:42;17.00;87.50
46890;DHT22;32625;51.080;16.970;2022-07-29T00:48:09;17.00;86.90
46890;DHT22;32625;51.080;16.970;2022-07-29T00:50:37;17.00;88.60
46890;DHT22;32625;51.080;16.970;2022-07-29T00:53:08;17.00;89.10
46890;DHT22;32625;51.080;16.970;2022-07-29T00:55:38;16.90;88.10
46890;DHT22;32625;51.080;16.970;2022-07-29T00:58:06;16.90;87.30
46890;DHT22;32625;51.080;16.970;2022-07-29T01:00:34;16.90;88.40
46890;DHT22;32625;51.080;16.970;2022-07-29T01:03:01;16.90;88.10
46890;DHT22;32625;51.080;16.970;2022-07-29T01:05:30;16.80;89.10
46890;DHT22;32625;51.080;16.970;2022-07-29T01:08:18;16.70;90.10
46890;DHT22;32625;51.080;16.970;2022-07-29T01:10:47;16.70;90.00
46890;DHT22;32625;51.080;16.970;2022-07-29T01:13:15;16.70;88.60
46890;DHT22;32625;51.080;16.970;2022-07-29T01:15:51;16.60;90.40
46890;DHT22;32625;51.080;16.970;2022-07-29T01:18:30;16.60;91.10
46890;DHT22;32625;51.080;16.970;2022-07-29T01:26:47;16.40;91.20
46890;DHT22;32625;51.080;16.970;2022-07-29T01:29:26;16.40;90.60
46890;DHT22;32625;51.080;16.970;2022-07-29T01:32:18;16.30;91.10
46890;DHT22;32625;51.080;16.970;2022-07-29T01:35:14;16.30;91.30
46890;DHT22;32625;51.080;16.970;2022-07-29T01:37:47;16.20;90.90
46890;DHT22;32625;51.080;16.970;2022-07-29T01:40:43;16.30;91.60
46890;DHT22;32625;51.080;16.970;2022-07-29T01:43:14;16.30;91.10
46890;DHT22;32625;51.080;16.970;2022-07-29T01:45:47;16.20;91.10
46890;DHT22;32625;51.080;16.970;2022-07-29T01:51:02;16.10;92.10
46890;DHT22;32625;51.080;16.970;2022-07-29T01:53:34;16.00;92.00
46890;DHT22;32625;51.080;16.970;2022-07-29T01:56:04;16.00;92.40
46890;DHT22;32625;51.080;16.970;2022-07-29T01:58:34;15.90;92.40
46890;DHT22;32625;51.080;16.970;2022-07-29T02:01:02;15.90;92.40
46890;DHT22;32625;51.080;16.970;2022-07-29T02:03:32;15.80;92.30
46890;DHT22;32625;51.080;16.970;2022-07-29T02:06:02;15.80;92.10
46890;DHT22;32625;51.080;16.970;2022-07-29T02:08:32;15.80;92.60
46890;DHT22;32625;51.080;16.970;2022-07-29T02:11:01;15.80;92.50
46890;DHT22;32625;51.080;16.970;2022-07-29T02:13:32;15.70;92.60
46890;DHT22;32625;51.080;16.970;2022-07-29T02:16:02;15.70;92.50
46890;DHT22;32625;51.080;16.970;2022-07-29T02:18:32;15.70;93.10
46890;DHT22;32625;51.080;16.970;2022-07-29T02:21:01;15.70;92.80
46890;DHT22;32625;51.080;16.970;2022-07-29T02:23:31;15.60;92.70
46890;DHT22;32625;51.080;16.970;2022-07-29T02:26:21;15.50;93.00
46890;DHT22;32625;51.080;16.970;2022-07-29T02:28:52;15.50;93.50
46890;DHT22;32625;51.080;16.970;2022-07-29T02:31:24;15.50;93.30
46890;DHT22;32625;51.080;16.970;2022-07-29T02:33:53;15.60;93.50
46890;DHT22;32625;51.080;16.970;2022-07-29T02:36:22;15.50;93.70
46890;DHT22;32625;51.080;16.970;2022-07-29T02:38:50;15.50;93.50
46890;DHT22;32625;51.080;16.970;2022-07-29T02:41:29;15.50;93.80
46890;DHT22;32625;51.080;16.970;2022-07-29T02:44:03;15.40;93.90
46890;DHT22;32625;51.080;16.970;2022-07-29T02:46:32;15.40;93.90
46890;DHT22;32625;51.080;16.970;2022-07-29T02:49:15;15.40;94.40
46890;DHT22;32625;51.080;16.970;2022-07-29T02:51:46;15.30;94.10
46890;DHT22;32625;51.080;16.970;2022-07-29T02:54:44;15.30;94.10
46890;DHT22;32625;51.080;16.970;2022-07-29T02:57:41;15.30;94.60
46890;DHT22;32625;51.080;16.970;2022-07-29T03:00:23;15.30;94.50
46890;DHT22;32625;51.080;16.970;2022-07-29T03:02:59;15.30;94.50
46890;DHT22;32625;51.080;16.970;2022-07-29T03:05:27;15.30;94.90
46890;DHT22;32625;51.080;16.970;2022-07-29T03:07:58;15.30;94.80
46890;DHT22;32625;51.080;16.970;2022-07-29T03:10:27;15.30;94.60
46890;DHT22;32625;51.080;16.970;2022-07-29T03:12:55;15.30;95.10
46890;DHT22;32625;51.080;16.970;2022-07-29T03:15:25;15.20;95.00
46890;DHT22;32625;51.080;16.970;2022-07-29T03:17:53;15.10;95.40
46890;DHT22;32625;51.080;16.970;2022-07-29T03:20:22;15.10;95.40
46890;DHT22;32625;51.080;16.970;2022-07-29T03:22:50;15.10;95.70
46890;DHT22;32625;51.080;16.970;2022-07-29T03:25:19;15.10;95.80
46890;DHT22;32625;51.080;16.970;2022-07-29T03:27:47;15.10;95.90
46890;DHT22;32625;51.080;16.970;2022-07-29T03:30:15;15.00;96.00
46890;DHT22;32625;51.080;16.970;2022-07-29T03:32:48;15.00;96.10
46890;DHT22;32625;51.080;16.970;2022-07-29T03:35:19;15.00;96.30
46890;DHT22;32625;51.080;16.970;2022-07-29T03:37:47;15.00;96.30
46890;DHT22;32625;51.080;16.970;2022-07-29T03:40:21;15.00;96.60
46890;DHT22;32625;51.080;16.970;2022-07-29T03:42:50;15.10;96.80
46890;DHT22;32625;51.080;16.970;2022-07-29T03:45:18;15.10;96.90
46890;DHT22;32625;51.080;16.970;2022-07-29T03:47:49;15.00;97.10
46890;DHT22;32625;51.080;16.970;2022-07-29T03:50:24;15.00;97.10
46890;DHT22;32625;51.080;16.970;2022-07-29T03:52:52;15.00;97.20
46890;DHT22;32625;51.080;16.970;2022-07-29T03:55:19;14.90;97.20
46890;DHT22;32625;51.080;16.970;2022-07-29T03:57:48;15.00;98.20
46890;DHT22;32625;51.080;16.970;2022-07-29T04:00:16;15.00;98.10
46890;DHT22;32625;51.080;16.970;2022-07-29T04:02:44;15.00;97.80
46890;DHT22;32625;51.080;16.970;2022-07-29T04:05:16;14.90;98.20
46890;DHT22;32625;51.080;16.970;2022-07-29T04:07:45;15.00;98.60
46890;DHT22;32625;51.080;16.970;2022-07-29T04:10:13;15.00;98.60
46890;DHT22;32625;51.080;16.970;2022-07-29T04:12:42;15.00;99.20
46890;DHT22;32625;51.080;16.970;2022-07-29T04:15:10;15.00;99.20
46890;DHT22;32625;51.080;16.970;2022-07-29T04:17:38;15.10;99.60
46890;DHT22;32625;51.080;16.970;2022-07-29T04:20:06;15.10;99.60
46890;DHT22;32625;51.080;16.970;2022-07-29T04:22:33;15.20;99.30
46890;DHT22;32625;51.080;16.970;2022-07-29T04:25:01;15.20;99.30
46890;DHT22;32625;51.080;16.970;2022-07-29T04:27:30;15.30;99.20
46890;DHT22;32625;51.080;16.970;2022-07-29T04:29:57;15.40;99.60
46890;DHT22;32625;51.080;16.970;2022-07-29T04:32:25;15.50;99.60
46890;DHT22;32625;51.080;16.970;2022-07-29T04:34:52;15.50;99.90
46890;DHT22;32625;51.080;16.970;2022-07-29T04:37:20;15.60;99.90
46890;DHT22;32625;51.080;16.970;2022-07-29T04:39:47;15.70;99.20
46890;DHT22;32625;51.080;16.970;2022-07-29T04:42:14;15.80;99.30
46890;DHT22;32625;51.080;16.970;2022-07-29T04:44:43;15.80;98.70
46890;DHT22;32625;51.080;16.970;2022-07-29T04:47:11;16.00;99.70
46890;DHT22;32625;51.080;16.970;2022-07-29T04:49:39;16.00;99.50
46890;DHT22;32625;51.080;16.970;2022-07-29T04:52:06;16.10;98.40
46890;DHT22;32625;51.080;16.970;2022-07-29T04:54:34;16.20;98.40
46890;DHT22;32625;51.080;16.970;2022-07-29T04:57:01;16.30;97.30
46890;DHT22;32625;51.080;16.970;2022-07-29T04:59:28;16.40;96.60
46890;DHT22;32625;51.080;16.970;2022-07-29T05:01:55;16.50;96.70
46890;DHT22;32625;51.080;16.970;2022-07-29T05:04:23;16.60;96.90
46890;DHT22;32625;51.080;16.970;2022-07-29T05:06:50;16.60;97.10
46890;DHT22;32625;51.080;16.970;2022-07-29T05:09:17;16.60;96.60
46890;DHT22;32625;51.080;16.970;2022-07-29T05:11:44;16.70;97.00
46890;DHT22;32625;51.080;16.970;2022-07-29T05:14:12;16.70;97.60
46890;DHT22;32625;51.080;16.970;2022-07-29T05:16:40;16.80;96.70
46890;DHT22;32625;51.080;16.970;2022-07-29T05:19:07;16.80;95.80
46890;DHT22;32625;51.080;16.970;2022-07-29T05:21:40;16.80;95.50
46890;DHT22;32625;51.080;16.970;2022-07-29T05:24:07;16.80;95.80
46890;DHT22;32625;51.080;16.970;2022-07-29T05:26:34;16.90;96.30
46890;DHT22;32625;51.080;16.970;2022-07-29T05:29:02;16.80;96.80
46890;DHT22;32625;51.080;16.970;2022-07-29T05:31:29;16.90;96.20
46890;DHT22;32625;51.080;16.970;2022-07-29T05:33:57;16.90;96.40
46890;DHT22;32625;51.080;16.970;2022-07-29T05:36:25;16.90;96.40
46890;DHT22;32625;51.080;16.970;2022-07-29T05:38:52;16.90;97.10
46890;DHT22;32625;51.080;16.970;2022-07-29T05:41:20;16.90;97.70
46890;DHT22;32625;51.080;16.970;2022-07-29T05:43:49;17.00;97.00
46890;DHT22;32625;51.080;16.970;2022-07-29T05:46:16;17.00;96.20
46890;DHT22;32625;51.080;16.970;2022-07-29T05:48:44;17.10;96.20
46890;DHT22;32625;51.080;16.970;2022-07-29T05:51:11;17.10;96.10
46890;DHT22;32625;51.080;16.970;2022-07-29T05:53:38;17.10;96.20
46890;DHT22;32625;51.080;16.970;2022-07-29T05:56:06;17.20;95.70
46890;DHT22;32625;51.080;16.970;2022-07-29T05:58:34;17.20;95.70
46890;DHT22;32625;51.080;16.970;2022-07-29T06:01:01;17.30;94.90
46890;DHT22;32625;51.080;16.970;2022-07-29T06:03:29;17.30;95.90
46890;DHT22;32625;51.080;16.970;2022-07-29T06:05:57;17.30;95.30
46890;DHT22;32625;51.080;16.970;2022-07-29T06:08:24;17.30;96.40
46890;DHT22;32625;51.080;16.970;2022-07-29T06:10:52;17.40;96.60
46890;DHT22;32625;51.080;16.970;2022-07-29T06:13:19;17.40;96.50
46890;DHT22;32625;51.080;16.970;2022-07-29T06:15:46;17.50;96.60
46890;DHT22;32625;51.080;16.970;2022-07-29T06:18:14;17.60;95.70
46890;DHT22;32625;51.080;16.970;2022-07-29T06:20:41;17.70;94.60
46890;DHT22;32625;51.080;16.970;2022-07-29T06:23:08;17.80;94.10
46890;DHT22;32625;51.080;16.970;2022-07-29T06:25:36;17.80;94.60
46890;DHT22;32625;51.080;16.970;2022-07-29T06:28:04;17.90;94.60
46890;DHT22;32625;51.080;16.970;2022-07-29T06:30:32;18.00;93.90
46890;DHT22;32625;51.080;16.970;2022-07-29T06:32:59;18.10;92.80
46890;DHT22;32625;51.080;16.970;2022-07-29T06:35:28;18.10;93.00
46890;DHT22;32625;51.080;16.970;2022-07-29T06:38:08;18.30;93.90
46890;DHT22;32625;51.080;16.970;2022-07-29T06:40:55;18.40;92.70
46890;DHT22;32625;51.080;16.970;2022-07-29T06:43:37;18.50;92.90
46890;DHT22;32625;51.080;16.970;2022-07-29T06:46:17;18.60;92.30
46890;DHT22;32625;51.080;16.970;2022-07-29T06:48:45;18.60;93.10
46890;DHT22;32625;51.080;16.970;2022-07-29T06:51:14;18.70;93.90
46890;DHT22;32625;51.080;16.970;2022-07-29T06:53:50;18.70;93.60
46890;DHT22;32625;51.080;16.970;2022-07-29T06:56:33;19.00;91.90
46890;DHT22;32625;51.080;16.970;2022-07-29T06:59:06;19.10;90.80
46890;DHT22;32625;51.080;16.970;2022-07-29T07:01:33;19.00;91.70
46890;DHT22;32625;51.080;16.970;2022-07-29T07:04:00;19.00;92.40
46890;DHT22;32625;51.080;16.970;2022-07-29T07:06:28;19.00;92.50
46890;DHT22;32625;51.080;16.970;2022-07-29T07:08:55;19.00;93.30
46890;DHT22;32625;51.080;16.970;2022-07-29T07:11:23;19.00;93.30
46890;DHT22;32625;51.080;16.970;2022-07-29T07:13:50;19.10;92.60
46890;DHT22;32625;51.080;16.970;2022-07-29T07:16:17;19.20;92.50
46890;DHT22;32625;51.080;16.970;2022-07-29T07:18:45;19.30;91.70
46890;DHT22;32625;51.080;16.970;2022-07-29T07:21:12;19.50;91.40
46890;DHT22;32625;51.080;16.970;2022-07-29T07:23:45;19.60;91.50
46890;DHT22;32625;51.080;16.970;2022-07-29T07:26:14;19.80;90.40
46890;DHT22;32625;51.080;16.970;2022-07-29T07:28:41;19.90;90.20
46890;DHT22;32625;51.080;16.970;2022-07-29T07:31:08;20.00;90.20
46890;DHT22;32625;51.080;16.970;2022-07-29T07:33:36;20.10;89.80
46890;DHT22;32625;51.080;16.970;2022-07-29T07:36:03;20.10;89.80
46890;DHT22;32625;51.080;16.970;2022-07-29T07:38:31;20.10;90.00
46890;DHT22;32625;51.080;16.970;2022-07-29T07:40:58;20.20;90.30
46890;DHT22;32625;51.080;16.970;2022-07-29T07:43:26;20.20;89.60
46890;DHT22;32625;51.080;16.970;2022-07-29T07:45:53;20.20;90.20
46890;DHT22;32625;51.080;16.970;2022-07-29T07:48:20;20.20;90.10
46890;DHT22;32625;51.080;16.970;2022-07-29T07:50:48;20.20;90.40
46890;DHT22;32625;51.080;16.970;2022-07-29T07:53:16;20.20;90.50
46890;DHT22;32625;51.080;16.970;2022-07-29T07:55:44;20.30;90.70
46890;DHT22;32625;51.080;16.970;2022-07-29T07:58:31;20.20;90.10
46890;DHT22;32625;51.080;16.970;2022-07-29T08:00:59;20.30;90.70
46890;DHT22;32625;51.080;16.970;2022-07-29T08:03:26;20.40;90.10
46890;DHT22;32625;51.080;16.970;2022-07-29T08:05:53;20.30;90.00
46890;DHT22;32625;51.080;16.970;2022-07-29T08:08:21;20.40;89.70
46890;DHT22;32625;51.080;16.970;2022-07-29T08:10:48;20.40;89.20
46890;DHT22;32625;51.080;16.970;2022-07-29T08:13:20;20.50;88.10
46890;DHT22;32625;51.080;16.970;2022-07-29T08:15:48;20.60;89.60
46890;DHT22;32625;51.080;16.970;2022-07-29T08:18:26;20.80;89.40
46890;DHT22;32625;51.080;16.970;2022-07-29T08:20:53;20.90;89.30
46890;DHT22;32625;51.080;16.970;2022-07-29T08:23:21;21.10;89.70
46890;DHT22;32625;51.080;16.970;2022-07-29T08:25:51;21.20;86.20
46890;DHT22;32625;51.080;16.970;2022-07-29T08:28:20;21.50;86.30
46890;DHT22;32625;51.080;16.970;2022-07-29T08:30:52;21.50;85.50
46890;DHT22;32625;51.080;16.970;2022-07-29T08:33:19;21.80;83.80
46890;DHT22;32625;51.080;16.970;2022-07-29T08:35:46;21.90;84.20
46890;DHT22;32625;51.080;16.970;2022-07-29T08:38:14;22.00;82.60
46890;DHT22;32625;51.080;16.970;2022-07-29T08:40:41;21.80;85.30
46890;DHT22;32625;51.080;16.970;2022-07-29T08:43:09;21.80;83.20
46890;DHT22;32625;51.080;16.970;2022-07-29T08:45:50;21.80;84.60
46890;DHT22;32625;51.080;16.970;2022-07-29T08:48:20;21.90;84.70
46890;DHT22;32625;51.080;16.970;2022-07-29T08:50:53;21.90;83.80
46890;DHT22;32625;51.080;16.970;2022-07-29T08:53:24;21.90;82.90
46890;DHT22;32625;51.080;16.970;2022-07-29T08:55:54;21.90;85.00
46890;DHT22;32625;51.080;16.970;2022-07-29T08:58:22;21.90;84.20
46890;DHT22;32625;51.080;16.970;2022-07-29T09:00:53;22.00;84.50
46890;DHT22;32625;51.080;16.970;2022-07-29T09:03:26;22.10;83.80
46890;DHT22;32625;51.080;16.970;2022-07-29T09:05:53;22.20;82.60
46890;DHT22;32625;51.080;16.970;2022-07-29T09:08:21;22.30;82.30
46890;DHT22;32625;51.080;16.970;2022-07-29T09:10:50;22.50;83.60
46890;DHT22;32625;51.080;16.970;2022-07-29T09:13:18;22.90;82.80
46890;DHT22;32625;51.080;16.970;2022-07-29T09:15:46;23.10;81.00
46890;DHT22;32625;51.080;16.970;2022-07-29T09:18:37;23.10;79.80
46890;DHT22;32625;51.080;16.970;2022-07-29T09:21:06;23.10;79.30
46890;DHT22;32625;51.080;16.970;2022-07-29T09:24:08;23.10;80.90
46890;DHT22;32625;51.080;16.970;2022-07-29T09:26:39;23.00;81.10
46890;DHT22;32625;51.080;16.970;2022-07-29T09:29:12;23.00;79.80
46890;DHT22;32625;51.080;16.970;2022-07-29T09:31:48;23.00;78.80
46890;DHT22;32625;51.080;16.970;2022-07-29T09:36:52;23.10;79.30
46890;DHT22;32625;51.080;16.970;2022-07-29T09:39:37;23.00;78.80
46890;DHT22;32625;51.080;16.970;2022-07-29T09:42:12;23.00;78.00
46890;DHT22;32625;51.080;16.970;2022-07-29T09:44:47;22.80;80.40
46890;DHT22;32625;51.080;16.970;2022-07-29T09:47:17;22.90;80.70
46890;DHT22;32625;51.080;16.970;2022-07-29T09:49:58;22.90;82.10
46890;DHT22;32625;51.080;16.970;2022-07-29T09:52:27;23.10;79.70
46890;DHT22;32625;51.080;16.970;2022-07-29T09:55:09;23.00;80.00
46890;DHT22;32625;51.080;16.970;2022-07-29T09:57:45;23.10;78.90
46890;DHT22;32625;51.080;16.970;2022-07-29T10:00:18;23.00;81.00
46890;DHT22;32625;51.080;16.970;2022-07-29T10:02:46;23.00;81.00
46890;DHT22;32625;51.080;16.970;2022-07-29T10:07:52;23.10;79.00
46890;DHT22;32625;51.080;16.970;2022-07-29T10:10:31;23.30;79.20
46890;DHT22;32625;51.080;16.970;2022-07-29T10:13:03;23.50;78.30
46890;DHT22;32625;51.080;16.970;2022-07-29T10:15:40;23.60;78.70
46890;DHT22;32625;51.080;16.970;2022-07-29T10:18:08;23.60;79.00
46890;DHT22;32625;51.080;16.970;2022-07-29T10:20:37;23.60;78.10
46890;DHT22;32625;51.080;16.970;2022-07-29T10:23:05;23.60;78.10
46890;DHT22;32625;51.080;16.970;2022-07-29T10:25:32;23.60;77.90
46890;DHT22;32625;51.080;16.970;2022-07-29T10:28:00;23.60;79.50
46890;DHT22;32625;51.080;16.970;2022-07-29T10:30:27;23.70;77.90
46890;DHT22;32625;51.080;16.970;2022-07-29T10:36:15;23.90;76.10
46890;DHT22;32625;51.080;16.970;2022-07-29T10:39:10;23.90;76.30
46890;DHT22;32625;51.080;16.970;2022-07-29T10:44:42;23.80;77.50
46890;DHT22;32625;51.080;16.970;2022-07-29T10:47:23;24.00;75.90
46890;DHT22;32625;51.080;16.970;2022-07-29T10:50:02;24.30;74.70
46890;DHT22;32625;51.080;16.970;2022-07-29T10:53:06;24.30;74.80
46890;DHT22;32625;51.080;16.970;2022-07-29T10:55:39;24.30;73.60
46890;DHT22;32625;51.080;16.970;2022-07-29T10:58:20;24.20;74.50
46890;DHT22;32625;51.080;16.970;2022-07-29T11:00:52;24.20;75.20
46890;DHT22;32625;51.080;16.970;2022-07-29T11:03:42;24.30;74.70
46890;DHT22;32625;51.080;16.970;2022-07-29T11:06:16;24.20;75.80
46890;DHT22;32625;51.080;16.970;2022-07-29T11:09:15;24.10;76.00
46890;DHT22;32625;51.080;16.970;2022-07-29T11:11:46;24.10;74.20
46890;DHT22;32625;51.080;16.970;2022-07-29T11:14:18;24.20;73.50
46890;DHT22;32625;51.080;16.970;2022-07-29T11:17:01;24.10;74.50
46890;DHT22;32625;51.080;16.970;2022-07-29T11:19:32;24.10;75.00
46890;DHT22;32625;51.080;16.970;2022-07-29T11:22:01;24.20;74.30
46890;DHT22;32625;51.080;16.970;2022-07-29T11:24:30;24.20;73.70
46890;DHT22;32625;51.080;16.970;2022-07-29T11:29:48;24.20;73.20
46890;DHT22;32625;51.080;16.970;2022-07-29T11:32:17;24.10;73.60
46890;DHT22;32625;51.080;16.970;2022-07-29T11:35:12;24.00;74.30
46890;DHT22;32625;51.080;16.970;2022-07-29T11:38:23;24.10;73.10
46890;DHT22;32625;51.080;16.970;2022-07-29T11:40:36;24.10;74.90
46890;DHT22;32625;51.080;16.970;2022-07-29T11:43:08;24.10;74.50
46890;DHT22;32625;51.080;16.970;2022-07-29T11:45:46;24.00;74.70
46890;DHT22;32625;51.080;16.970;2022-07-29T11:48:18;24.00;74.60
46890;DHT22;32625;51.080;16.970;2022-07-29T11:50:59;24.10;73.00
46890;DHT22;32625;51.080;16.970;2022-07-29T11:53:26;24.10;73.50
46890;DHT22;32625;51.080;16.970;2022-07-29T11:55:59;24.10;72.90
46890;DHT22;32625;51.080;16.970;2022-07-29T11:58:27;24.10;76.20
46890;DHT22;32625;51.080;16.970;2022-07-29T12:00:55;24.10;74.70
46890;DHT22;32625;51.080;16.970;2022-07-29T12:03:25;24.10;75.10
46890;DHT22;32625;51.080;16.970;2022-07-29T12:06:10;24.10;73.10
46890;DHT22;32625;51.080;16.970;2022-07-29T12:08:42;24.00;74.20
46890;DHT22;32625;51.080;16.970;2022-07-29T12:11:20;24.00;73.80
46890;DHT22;32625;51.080;16.970;2022-07-29T12:13:50;24.00;74.10
46890;DHT22;32625;51.080;16.970;2022-07-29T12:16:19;24.10;71.40
46890;DHT22;32625;51.080;16.970;2022-07-29T12:18:57;24.10;73.20
46890;DHT22;32625;51.080;16.970;2022-07-29T12:21:25;24.20;72.70
46890;DHT22;32625;51.080;16.970;2022-07-29T12:23:56;24.10;73.50
46890;DHT22;32625;51.080;16.970;2022-07-29T12:26:34;24.20;72.20
46890;DHT22;32625;51.080;16.970;2022-07-29T12:29:02;24.20;73.00
46890;DHT22;32625;51.080;16.970;2022-07-29T12:31:38;24.30;73.20
46890;DHT22;32625;51.080;16.970;2022-07-29T12:34:15;24.40;74.70
46890;DHT22;32625;51.080;16.970;2022-07-29T12:36:43;24.30;73.10
46890;DHT22;32625;51.080;16.970;2022-07-29T12:39:11;24.30;73.90
46890;DHT22;32625;51.080;16.970;2022-07-29T12:41:39;24.30;73.50
46890;DHT22;32625;51.080;16.970;2022-07-29T12:44:06;24.40;71.60
46890;DHT22;32625;51.080;16.970;2022-07-29T12:46:34;24.30;71.30
46890;DHT22;32625;51.080;16.970;2022-07-29T12:49:01;24.40;71.10
46890;DHT22;32625;51.080;16.970;2022-07-29T12:51:38;24.30;72.40
46890;DHT22;32625;51.080;16.970;2022-07-29T12:56:34;24.30;73.10
46890;DHT22;32625;51.080;16.970;2022-07-29T12:59:29;24.30;74.00
46890;DHT22;32625;51.080;16.970;2022-07-29T13:01:56;24.40;73.40
46890;DHT22;32625;51.080;16.970;2022-07-29T13:04:33;24.50;73.00
46890;DHT22;32625;51.080;16.970;2022-07-29T13:07:05;24.70;72.40
46890;DHT22;32625;51.080;16.970;2022-07-29T13:09:42;24.80;71.90
46890;DHT22;32625;51.080;16.970;2022-07-29T13:12:10;24.80;71.70
46890;DHT22;32625;51.080;16.970;2022-07-29T13:14:46;24.90;71.90
46890;DHT22;32625;51.080;16.970;2022-07-29T13:17:15;24.80;71.60
46890;DHT22;32625;51.080;16.970;2022-07-29T13:22:15;24.80;71.10
46890;DHT22;32625;51.080;16.970;2022-07-29T13:24:53;25.00;70.70
46890;DHT22;32625;51.080;16.970;2022-07-29T13:27:26;25.10;69.60
46890;DHT22;32625;51.080;16.970;2022-07-29T13:29:54;25.30;68.60
46890;DHT22;32625;51.080;16.970;2022-07-29T13:32:26;25.50;68.10
46890;DHT22;32625;51.080;16.970;2022-07-29T13:35:01;25.40;68.70
46890;DHT22;32625;51.080;16.970;2022-07-29T13:37:32;25.10;71.60
46890;DHT22;32625;51.080;16.970;2022-07-29T13:40:02;25.00;70.00
46890;DHT22;32625;51.080;16.970;2022-07-29T13:42:31;24.90;70.60
46890;DHT22;32625;51.080;16.970;2022-07-29T13:44:59;24.90;70.80
46890;DHT22;32625;51.080;16.970;2022-07-29T13:47:27;24.90;70.50
46890;DHT22;32625;51.080;16.970;2022-07-29T13:50:04;24.90;69.70
46890;DHT22;32625;51.080;16.970;2022-07-29T13:52:33;24.90;70.50
46890;DHT22;32625;51.080;16.970;2022-07-29T13:55:01;25.00;70.70
46890;DHT22;32625;51.080;16.970;2022-07-29T13:57:29;24.90;70.30
46890;DHT22;32625;51.080;16.970;2022-07-29T13:59:57;24.80;70.90
46890;DHT22;32625;51.080;16.970;2022-07-29T14:02:24;24.80;71.20
46890;DHT22;32625;51.080;16.970;2022-07-29T14:04:55;24.80;70.70
46890;DHT22;32625;51.080;16.970;2022-07-29T14:07:23;24.80;70.90
46890;DHT22;32625;51.080;16.970;2022-07-29T14:09:50;24.70;70.40
46890;DHT22;32625;51.080;16.970;2022-07-29T14:12:18;24.70;72.20
46890;DHT22;32625;51.080;16.970;2022-07-29T14:14:46;24.60;71.50
46890;DHT22;32625;51.080;16.970;2022-07-29T14:17:14;24.60;72.30
46890;DHT22;32625;51.080;16.970;2022-07-29T14:19:41;24.70;71.50
46890;DHT22;32625;51.080;16.970;2022-07-29T14:22:09;24.80;70.30
46890;DHT22;32625;51.080;16.970;2022-07-29T14:24:37;24.80;70.60
46890;DHT22;32625;51.080;16.970;2022-07-29T14:27:06;24.90;69.40
46890;DHT22;32625;51.080;16.970;2022-07-29T14:29:34;24.90;71.30
46890;DHT22;32625;51.080;16.970;2022-07-29T14:32:08;24.80;71.70
46890;DHT22;32625;51.080;16.970;2022-07-29T14:34:37;24.90;70.70
46890;DHT22;32625;51.080;16.970;2022-07-29T14:37:05;25.00;72.40
46890;DHT22;32625;51.080;16.970;2022-07-29T14:39:34;24.90;71.80
46890;DHT22;32625;51.080;16.970;2022-07-29T14:42:09;24.90;71.80
46890;DHT22;32625;51.080;16.970;2022-07-29T14:44:39;24.90;70.70
46890;DHT22;32625;51.080;16.970;2022-07-29T14:47:07;24.80;73.20
46890;DHT22;32625;51.080;16.970;2022-07-29T14:49:35;24.70;72.50
46890;DHT22;32625;51.080;16.970;2022-07-29T14:52:02;24.70;73.50
46890;DHT22;32625;51.080;16.970;2022-07-29T14:54:30;24.70;73.60
46890;DHT22;32625;51.080;16.970;2022-07-29T14:56:57;24.70;74.40
46890;DHT22;32625;51.080;16.970;2022-07-29T14:59:25;24.70;73.70
46890;DHT22;32625;51.080;16.970;2022-07-29T15:01:53;24.60;74.80
46890;DHT22;32625;51.080;16.970;2022-07-29T15:04:21;24.60;74.30
46890;DHT22;32625;51.080;16.970;2022-07-29T15:06:48;24.60;73.60
46890;DHT22;32625;51.080;16.970;2022-07-29T15:09:15;24.50;73.10
46890;DHT22;32625;51.080;16.970;2022-07-29T15:11:43;24.50;72.20
46890;DHT22;32625;51.080;16.970;2022-07-29T15:14:10;24.40;72.50
46890;DHT22;32625;51.080;16.970;2022-07-29T15:16:39;24.40;72.00
46890;DHT22;32625;51.080;16.970;2022-07-29T15:19:14;24.30;72.30
46890;DHT22;32625;51.080;16.970;2022-07-29T15:21:41;24.30;72.10
46890;DHT22;32625;51.080;16.970;2022-07-29T15:24:18;24.40;71.80
46890;DHT22;32625;51.080;16.970;2022-07-29T15:26:47;24.50;72.70
46890;DHT22;32625;51.080;16.970;2022-07-29T15:29:15;24.60;72.50
46890;DHT22;32625;51.080;16.970;2022-07-29T15:31:42;24.60;71.90
46890;DHT22;32625;51.080;16.970;2022-07-29T15:34:10;24.60;72.50
46890;DHT22;32625;51.080;16.970;2022-07-29T15:36:37;24.50;72.70
46890;DHT22;32625;51.080;16.970;2022-07-29T15:39:19;24.40;72.30
46890;DHT22;32625;51.080;16.970;2022-07-29T15:41:47;24.40;72.30
46890;DHT22;32625;51.080;16.970;2022-07-29T15:44:14;24.30;72.80
46890;DHT22;32625;51.080;16.970;2022-07-29T15:46:42;24.30;73.70
46890;DHT22;32625;51.080;16.970;2022-07-29T15:49:33;24.30;71.60
46890;DHT22;32625;51.080;16.970;2022-07-29T15:52:16;24.10;73.90
46890;DHT22;32625;51.080;16.970;2022-07-29T15:54:55;24.00;76.60
46890;DHT22;32625;51.080;16.970;2022-07-29T15:57:24;24.00;75.10
46890;DHT22;32625;51.080;16.970;2022-07-29T15:59:51;24.00;73.20
46890;DHT22;32625;51.080;16.970;2022-07-29T16:02:19;24.00;73.20
46890;DHT22;32625;51.080;16.970;2022-07-29T16:04:46;23.90;74.60
46890;DHT22;32625;51.080;16.970;2022-07-29T16:07:14;23.90;74.90